Primos-Secane, Pennsylvania
Current Conditions -  °F | °C
As of 10:54 AM on Tuesday 21 Oct 2014 (Local Time) from KPHL Reporting Station
Broken Clouds Broken Clouds  
Wind Chill: 61°   Ceiling: 11000
Heat Index: 61°   Visibility: 10mi
Dew Point: 51°   Wind: 3mph
Humidity: 70%   Direction: 230°SW
Pressure: 29.88"   Gusts: NA
Location:  39.9228°N, 75.2984°W
Report Text: KPHL 211454Z 23003KT 10SM FEW075 BKN110 16/11 A2988 RMK AO2 SLP116 T01610106 50000
Loading
Personal Weather Stations






























Interactive Weather Map
Tropical Storm Tracking
New forecast layout! Learn more

10-Day Weather Forecast

Advertisements
Track Severe Weather on mobile